createdAt,value
2022-08-03T00:02:47.262Z,47
2022-08-03T00:32:04.581Z,48
2022-08-03T01:01:33.315Z,49
2022-08-03T01:30:28.019Z,50
2022-08-03T01:59:16.310Z,50
2022-08-03T02:28:40.778Z,51
2022-08-03T02:58:02.115Z,51
2022-08-03T03:27:17.313Z,52
2022-08-03T03:56:10.631Z,52
2022-08-03T04:25:33.644Z,53
2022-08-03T04:54:58.773Z,55
2022-08-03T05:24:27.722Z,59
2022-08-03T05:53:56.501Z,61
2022-08-03T06:23:21.724Z,61
2022-08-03T06:52:40.700Z,58
2022-08-03T07:21:22.220Z,56
2022-08-03T07:50:47.021Z,54
2022-08-03T08:20:01.403Z,53
2022-08-03T08:49:08.807Z,50
2022-08-03T09:18:33.674Z,49
2022-08-03T09:47:45.450Z,48
2022-08-03T10:16:38.645Z,46
2022-08-03T10:46:05.732Z,43
2022-08-03T11:15:34.923Z,40
2022-08-03T11:44:59.781Z,39
2022-08-03T12:14:51.503Z,32
2022-08-03T12:43:40.032Z,35
2022-08-03T13:12:23.013Z,34
2022-08-03T13:41:41.713Z,35
2022-08-03T14:11:05.306Z,36
2022-08-03T14:40:46.261Z,27
2022-08-03T15:10:09.532Z,27
2022-08-03T15:39:58.643Z,28
2022-08-03T16:08:30.007Z,31
2022-08-03T16:37:57.203Z,31
2022-08-03T17:06:50.461Z,29
2022-08-03T17:36:14.040Z,32
2022-08-03T18:05:17.338Z,33
2022-08-03T18:34:20.233Z,35
2022-08-03T19:02:50.025Z,35
2022-08-03T19:31:59.281Z,36
2022-08-03T20:00:38.500Z,37
2022-08-03T20:29:19.120Z,37
2022-08-03T20:58:26.625Z,38
2022-08-03T21:27:42.110Z,39
2022-08-03T21:57:06.274Z,43
2022-08-03T22:26:35.963Z,43
2022-08-03T22:55:25.424Z,43
2022-08-03T23:24:27.497Z,46
2022-08-03T23:52:59.673Z,44
